sensor_id;sensor_type;location;lat;lon;timestamp;pressure;altitude;pressure_sealevel;temperature;humidity
41040;BME280;48586;50.122;18.972;2022-10-22T00:02:40;98461.16;;;11.34;60.61
41040;BME280;48586;50.122;18.972;2022-10-22T00:05:42;98441.63;;;11.29;60.82
41040;BME280;48586;50.122;18.972;2022-10-22T00:08:45;98451.22;;;11.30;60.64
41040;BME280;48586;50.122;18.972;2022-10-22T00:11:47;98453.09;;;11.23;61.04
41040;BME280;48586;50.122;18.972;2022-10-22T00:14:49;98455.34;;;11.19;60.73
41040;BME280;48586;50.122;18.972;2022-10-22T00:17:51;98445.78;;;11.18;60.59
41040;BME280;48586;50.122;18.972;2022-10-22T00:20:54;98454.16;;;11.15;60.75
41040;BME280;48586;50.122;18.972;2022-10-22T00:23:57;98451.97;;;11.12;60.88
41040;BME280;48586;50.122;18.972;2022-10-22T00:26:59;98459.31;;;11.10;60.80
41040;BME280;48586;50.122;18.972;2022-10-22T00:30:01;98458.50;;;11.09;61.18
41040;BME280;48586;50.122;18.972;2022-10-22T00:33:04;98460.59;;;11.01;61.36
41040;BME280;48586;50.122;18.972;2022-10-22T00:36:07;98448.00;;;10.96;61.59
41040;BME280;48586;50.122;18.972;2022-10-22T00:39:10;98442.75;;;10.89;61.62
41040;BME280;48586;50.122;18.972;2022-10-22T00:42:19;98444.38;;;10.90;61.27
41040;BME280;48586;50.122;18.972;2022-10-22T00:45:23;98444.38;;;10.90;61.51
41040;BME280;48586;50.122;18.972;2022-10-22T00:48:28;98444.56;;;10.89;61.45
41040;BME280;48586;50.122;18.972;2022-10-22T00:51:31;98444.63;;;10.82;62.04
41040;BME280;48586;50.122;18.972;2022-10-22T00:54:36;98436.28;;;10.79;61.47
41040;BME280;48586;50.122;18.972;2022-10-22T00:57:39;98445.47;;;10.76;61.61
41040;BME280;48586;50.122;18.972;2022-10-22T01:00:41;98439.56;;;10.81;61.34
41040;BME280;48586;50.122;18.972;2022-10-22T01:03:43;98434.84;;;10.83;61.56
41040;BME280;48586;50.122;18.972;2022-10-22T01:06:46;98419.16;;;10.81;61.60
41040;BME280;48586;50.122;18.972;2022-10-22T01:09:59;98418.28;;;10.87;61.90
41040;BME280;48586;50.122;18.972;2022-10-22T01:13:12;98431.53;;;10.87;61.72
41040;BME280;48586;50.122;18.972;2022-10-22T01:16:21;98427.69;;;10.83;61.95
41040;BME280;48586;50.122;18.972;2022-10-22T01:19:39;98421.16;;;10.86;61.74
41040;BME280;48586;50.122;18.972;2022-10-22T01:22:54;98416.28;;;10.83;61.54
41040;BME280;48586;50.122;18.972;2022-10-22T01:26:05;98415.09;;;10.79;61.67
41040;BME280;48586;50.122;18.972;2022-10-22T01:29:17;98408.97;;;10.78;62.08
41040;BME280;48586;50.122;18.972;2022-10-22T01:32:22;98406.75;;;10.75;61.87
41040;BME280;48586;50.122;18.972;2022-10-22T01:35:30;98406.31;;;10.78;61.65
41040;BME280;48586;50.122;18.972;2022-10-22T01:38:33;98407.34;;;10.77;61.98
41040;BME280;48586;50.122;18.972;2022-10-22T01:41:34;98407.94;;;10.79;61.65
41040;BME280;48586;50.122;18.972;2022-10-22T01:44:38;98400.84;;;10.73;62.09
41040;BME280;48586;50.122;18.972;2022-10-22T01:47:47;98406.09;;;10.80;61.93
41040;BME280;48586;50.122;18.972;2022-10-22T01:51:16;98409.56;;;10.80;62.03
41040;BME280;48586;50.122;18.972;2022-10-22T01:54:30;98407.56;;;10.76;61.95
41040;BME280;48586;50.122;18.972;2022-10-22T01:57:42;98402.88;;;10.78;62.00
41040;BME280;48586;50.122;18.972;2022-10-22T02:00:49;98409.78;;;10.79;61.99
41040;BME280;48586;50.122;18.972;2022-10-22T02:03:59;98398.53;;;10.83;61.95
41040;BME280;48586;50.122;18.972;2022-10-22T02:07:04;98391.19;;;10.85;61.93
41040;BME280;48586;50.122;18.972;2022-10-22T02:10:08;98392.38;;;10.89;62.02
41040;BME280;48586;50.122;18.972;2022-10-22T02:13:14;98395.38;;;10.93;61.95
41040;BME280;48586;50.122;18.972;2022-10-22T02:16:26;98400.50;;;10.94;62.00
41040;BME280;48586;50.122;18.972;2022-10-22T02:19:34;98397.69;;;10.89;62.01
41040;BME280;48586;50.122;18.972;2022-10-22T02:22:38;98398.69;;;10.88;62.08
41040;BME280;48586;50.122;18.972;2022-10-22T02:25:43;98392.97;;;10.91;62.13
41040;BME280;48586;50.122;18.972;2022-10-22T02:28:55;98399.88;;;10.92;62.02
41040;BME280;48586;50.122;18.972;2022-10-22T02:32:00;98393.44;;;10.82;62.01
41040;BME280;48586;50.122;18.972;2022-10-22T02:35:06;98385.91;;;10.79;62.41
41040;BME280;48586;50.122;18.972;2022-10-22T02:38:10;98388.34;;;10.80;62.14
41040;BME280;48586;50.122;18.972;2022-10-22T02:41:14;98391.00;;;10.80;62.10
41040;BME280;48586;50.122;18.972;2022-10-22T02:44:20;98401.59;;;10.80;62.18
41040;BME280;48586;50.122;18.972;2022-10-22T02:47:23;98416.91;;;10.78;62.15
41040;BME280;48586;50.122;18.972;2022-10-22T02:50:25;98422.47;;;10.70;62.16
41040;BME280;48586;50.122;18.972;2022-10-22T02:53:26;98423.31;;;10.64;62.31
41040;BME280;48586;50.122;18.972;2022-10-22T02:56:28;98420.91;;;10.56;62.49
41040;BME280;48586;50.122;18.972;2022-10-22T02:59:30;98421.13;;;10.54;62.50
41040;BME280;48586;50.122;18.972;2022-10-22T03:02:33;98417.22;;;10.57;62.58
41040;BME280;48586;50.122;18.972;2022-10-22T03:05:35;98420.09;;;10.55;62.66
41040;BME280;48586;50.122;18.972;2022-10-22T03:08:36;98422.16;;;10.53;62.75
41040;BME280;48586;50.122;18.972;2022-10-22T03:11:38;98435.38;;;10.53;62.69
41040;BME280;48586;50.122;18.972;2022-10-22T03:14:40;98431.13;;;10.52;62.82
41040;BME280;48586;50.122;18.972;2022-10-22T03:17:43;98436.25;;;10.47;62.71
41040;BME280;48586;50.122;18.972;2022-10-22T03:20:45;98427.28;;;10.41;62.75
41040;BME280;48586;50.122;18.972;2022-10-22T03:23:47;98426.13;;;10.37;62.99
41040;BME280;48586;50.122;18.972;2022-10-22T03:26:49;98421.44;;;10.33;62.99
41040;BME280;48586;50.122;18.972;2022-10-22T03:29:52;98419.00;;;10.31;62.92
41040;BME280;48586;50.122;18.972;2022-10-22T03:32:55;98403.50;;;10.35;63.07
41040;BME280;48586;50.122;18.972;2022-10-22T03:35:58;98392.91;;;10.35;63.10
41040;BME280;48586;50.122;18.972;2022-10-22T03:39:00;98384.16;;;10.34;63.21
41040;BME280;48586;50.122;18.972;2022-10-22T03:42:03;98388.66;;;10.34;63.33
41040;BME280;48586;50.122;18.972;2022-10-22T03:45:06;98397.41;;;10.34;63.27
41040;BME280;48586;50.122;18.972;2022-10-22T03:48:10;98386.81;;;10.34;63.39
41040;BME280;48586;50.122;18.972;2022-10-22T03:51:11;98404.31;;;10.35;63.12
41040;BME280;48586;50.122;18.972;2022-10-22T03:54:14;98408.81;;;10.28;63.34
41040;BME280;48586;50.122;18.972;2022-10-22T03:57:16;98411.34;;;10.16;63.42
41040;BME280;48586;50.122;18.972;2022-10-22T04:00:18;98409.09;;;10.13;63.68
41040;BME280;48586;50.122;18.972;2022-10-22T04:03:21;98406.25;;;10.15;63.51
41040;BME280;48586;50.122;18.972;2022-10-22T04:06:23;98406.84;;;10.17;63.76
41040;BME280;48586;50.122;18.972;2022-10-22T04:09:24;98403.19;;;10.11;63.78
41040;BME280;48586;50.122;18.972;2022-10-22T04:12:26;98414.81;;;10.10;63.84
41040;BME280;48586;50.122;18.972;2022-10-22T04:15:28;98412.22;;;10.04;63.87
41040;BME280;48586;50.122;18.972;2022-10-22T04:18:31;98412.84;;;9.99;64.18
41040;BME280;48586;50.122;18.972;2022-10-22T04:21:33;98408.19;;;9.94;63.99
41040;BME280;48586;50.122;18.972;2022-10-22T04:24:35;98417.56;;;9.90;63.96
41040;BME280;48586;50.122;18.972;2022-10-22T04:27:37;98413.72;;;9.86;64.39
41040;BME280;48586;50.122;18.972;2022-10-22T04:30:39;98409.41;;;9.85;64.34
41040;BME280;48586;50.122;18.972;2022-10-22T04:33:42;98402.50;;;9.84;64.58
41040;BME280;48586;50.122;18.972;2022-10-22T04:36:44;98406.19;;;9.83;64.31
41040;BME280;48586;50.122;18.972;2022-10-22T04:39:46;98399.25;;;9.82;64.54
41040;BME280;48586;50.122;18.972;2022-10-22T04:42:47;98397.81;;;9.86;64.45
41040;BME280;48586;50.122;18.972;2022-10-22T04:45:49;98378.84;;;9.89;64.45
41040;BME280;48586;50.122;18.972;2022-10-22T04:48:52;98373.16;;;9.92;64.40
41040;BME280;48586;50.122;18.972;2022-10-22T04:51:54;98368.25;;;9.96;64.24
41040;BME280;48586;50.122;18.972;2022-10-22T04:54:56;98370.50;;;9.99;64.19
41040;BME280;48586;50.122;18.972;2022-10-22T04:57:57;98376.41;;;9.94;64.13
41040;BME280;48586;50.122;18.972;2022-10-22T05:01:08;98368.25;;;9.96;64.70
41040;BME280;48586;50.122;18.972;2022-10-22T05:04:13;98382.94;;;9.92;64.80
41040;BME280;48586;50.122;18.972;2022-10-22T05:07:15;98392.53;;;9.86;64.65
41040;BME280;48586;50.122;18.972;2022-10-22T05:10:17;98388.28;;;9.79;64.55
41040;BME280;48586;50.122;18.972;2022-10-22T05:13:19;98386.66;;;9.78;64.66
41040;BME280;48586;50.122;18.972;2022-10-22T05:16:20;98386.25;;;9.74;64.72
41040;BME280;48586;50.122;18.972;2022-10-22T05:19:25;98385.84;;;9.70;64.74
41040;BME280;48586;50.122;18.972;2022-10-22T05:22:27;98387.28;;;9.66;65.60
41040;BME280;48586;50.122;18.972;2022-10-22T05:25:29;98396.88;;;9.61;64.79
41040;BME280;48586;50.122;18.972;2022-10-22T05:28:31;98394.47;;;9.53;65.17
41040;BME280;48586;50.122;18.972;2022-10-22T05:31:33;98404.66;;;9.42;65.62
41040;BME280;48586;50.122;18.972;2022-10-22T05:34:37;98404.03;;;9.40;65.50
41040;BME280;48586;50.122;18.972;2022-10-22T05:37:39;98395.88;;;9.42;65.57
41040;BME280;48586;50.122;18.972;2022-10-22T05:40:40;98380.03;;;9.49;65.32
41040;BME280;48586;50.122;18.972;2022-10-22T05:43:42;98378.97;;;9.56;65.19
41040;BME280;48586;50.122;18.972;2022-10-22T05:46:44;98400.94;;;9.63;65.00
41040;BME280;48586;50.122;18.972;2022-10-22T05:49:47;98414.56;;;9.67;64.92
41040;BME280;48586;50.122;18.972;2022-10-22T05:52:49;98412.31;;;9.70;65.00
41040;BME280;48586;50.122;18.972;2022-10-22T05:55:51;98407.03;;;9.77;64.94
41040;BME280;48586;50.122;18.972;2022-10-22T05:58:52;98398.44;;;9.82;64.88
41040;BME280;48586;50.122;18.972;2022-10-22T06:01:54;98406.97;;;9.90;64.68
41040;BME280;48586;50.122;18.972;2022-10-22T06:04:57;98412.44;;;9.95;64.64
41040;BME280;48586;50.122;18.972;2022-10-22T06:07:59;98438.13;;;9.95;64.78
41040;BME280;48586;50.122;18.972;2022-10-22T06:11:01;98441.97;;;9.99;64.72
41040;BME280;48586;50.122;18.972;2022-10-22T06:14:03;98435.22;;;10.03;65.20
41040;BME280;48586;50.122;18.972;2022-10-22T06:17:05;98425.44;;;10.04;65.00
41040;BME280;48586;50.122;18.972;2022-10-22T06:20:10;98427.25;;;10.16;64.80
41040;BME280;48586;50.122;18.972;2022-10-22T06:23:12;98441.06;;;10.25;65.03
41040;BME280;48586;50.122;18.972;2022-10-22T06:26:14;98433.44;;;10.42;64.33
41040;BME280;48586;50.122;18.972;2022-10-22T06:29:17;98447.41;;;10.56;64.21
41040;BME280;48586;50.122;18.972;2022-10-22T06:32:19;98444.31;;;10.72;63.90
41040;BME280;48586;50.122;18.972;2022-10-22T06:35:22;98458.19;;;10.99;63.65
41040;BME280;48586;50.122;18.972;2022-10-22T06:38:24;98458.31;;;11.11;63.24
41040;BME280;48586;50.122;18.972;2022-10-22T06:41:25;98464.34;;;11.18;63.14
41040;BME280;48586;50.122;18.972;2022-10-22T06:44:27;98458.28;;;11.36;63.06
41040;BME280;48586;50.122;18.972;2022-10-22T06:47:29;98459.22;;;11.48;62.76
41040;BME280;48586;50.122;18.972;2022-10-22T06:50:34;98456.50;;;11.55;62.59
41040;BME280;48586;50.122;18.972;2022-10-22T06:53:36;98463.00;;;11.59;62.17
41040;BME280;48586;50.122;18.972;2022-10-22T06:56:38;98455.75;;;11.66;62.23
41040;BME280;48586;50.122;18.972;2022-10-22T06:59:40;98447.59;;;11.67;62.18
41040;BME280;48586;50.122;18.972;2022-10-22T07:02:42;98456.53;;;11.73;61.94
41040;BME280;48586;50.122;18.972;2022-10-22T07:05:45;98483.50;;;11.70;61.77
41040;BME280;48586;50.122;18.972;2022-10-22T07:08:47;98482.91;;;11.68;62.01
41040;BME280;48586;50.122;18.972;2022-10-22T07:11:49;98475.50;;;11.77;62.07
41040;BME280;48586;50.122;18.972;2022-10-22T07:14:50;98472.91;;;11.88;61.72
41040;BME280;48586;50.122;18.972;2022-10-22T07:17:52;98474.25;;;11.98;61.80
41040;BME280;48586;50.122;18.972;2022-10-22T07:20:55;98459.63;;;12.07;61.59
41040;BME280;48586;50.122;18.972;2022-10-22T07:23:58;98467.75;;;12.12;61.41
41040;BME280;48586;50.122;18.972;2022-10-22T07:27:00;98483.25;;;12.15;61.31
41040;BME280;48586;50.122;18.972;2022-10-22T07:30:03;98471.34;;;12.17;61.19
41040;BME280;48586;50.122;18.972;2022-10-22T07:33:06;98446.59;;;12.24;61.06
41040;BME280;48586;50.122;18.972;2022-10-22T07:36:12;98439.72;;;12.34;61.24
41040;BME280;48586;50.122;18.972;2022-10-22T07:39:17;98445.75;;;12.41;61.26
41040;BME280;48586;50.122;18.972;2022-10-22T07:42:18;98463.16;;;12.56;60.86
41040;BME280;48586;50.122;18.972;2022-10-22T07:45:20;98476.50;;;12.67;60.63
41040;BME280;48586;50.122;18.972;2022-10-22T07:48:23;98481.25;;;12.77;60.87
41040;BME280;48586;50.122;18.972;2022-10-22T07:51:26;98477.13;;;12.81;60.12
41040;BME280;48586;50.122;18.972;2022-10-22T07:54:28;98470.25;;;12.74;60.09
41040;BME280;48586;50.122;18.972;2022-10-22T07:57:30;98462.97;;;12.69;60.15
41040;BME280;48586;50.122;18.972;2022-10-22T08:00:32;98457.28;;;12.65;60.46
41040;BME280;48586;50.122;18.972;2022-10-22T08:03:34;98460.91;;;12.71;60.29
41040;BME280;48586;50.122;18.972;2022-10-22T08:06:39;98454.59;;;12.84;60.40
41040;BME280;48586;50.122;18.972;2022-10-22T08:09:41;98454.09;;;12.87;60.20
41040;BME280;48586;50.122;18.972;2022-10-22T08:12:43;98452.97;;;12.94;59.87
41040;BME280;48586;50.122;18.972;2022-10-22T08:15:45;98458.91;;;12.97;59.84
41040;BME280;48586;50.122;18.972;2022-10-22T08:18:48;98465.72;;;12.92;59.91
41040;BME280;48586;50.122;18.972;2022-10-22T08:21:52;98483.72;;;12.90;59.87
41040;BME280;48586;50.122;18.972;2022-10-22T08:24:54;98484.78;;;12.89;59.93
41040;BME280;48586;50.122;18.972;2022-10-22T08:27:57;98481.88;;;12.91;59.98
41040;BME280;48586;50.122;18.972;2022-10-22T08:30:59;98479.34;;;12.84;60.02
41040;BME280;48586;50.122;18.972;2022-10-22T08:34:01;98476.19;;;12.76;59.61
41040;BME280;48586;50.122;18.972;2022-10-22T08:37:07;98474.31;;;12.76;59.95
41040;BME280;48586;50.122;18.972;2022-10-22T08:40:11;98473.16;;;12.72;59.84
41040;BME280;48586;50.122;18.972;2022-10-22T08:43:52;98481.69;;;12.74;60.09
41040;BME280;48586;50.122;18.972;2022-10-22T08:47:11;98484.38;;;12.74;60.10
41040;BME280;48586;50.122;18.972;2022-10-22T08:50:20;98474.53;;;12.75;59.89
41040;BME280;48586;50.122;18.972;2022-10-22T08:53:30;98472.72;;;12.75;59.93
41040;BME280;48586;50.122;18.972;2022-10-22T08:56:40;98474.91;;;12.78;60.05
41040;BME280;48586;50.122;18.972;2022-10-22T08:59:48;98477.84;;;12.88;60.08
41040;BME280;48586;50.122;18.972;2022-10-22T09:03:11;98466.88;;;12.97;59.82
41040;BME280;48586;50.122;18.972;2022-10-22T09:06:24;98469.44;;;13.03;59.59
41040;BME280;48586;50.122;18.972;2022-10-22T09:09:32;98469.91;;;13.12;59.69
41040;BME280;48586;50.122;18.972;2022-10-22T09:12:35;98472.59;;;13.24;59.99
41040;BME280;48586;50.122;18.972;2022-10-22T09:15:37;98483.00;;;13.25;59.82
41040;BME280;48586;50.122;18.972;2022-10-22T09:18:43;98490.78;;;13.27;59.79
41040;BME280;48586;50.122;18.972;2022-10-22T09:21:53;98492.50;;;13.33;59.91
41040;BME280;48586;50.122;18.972;2022-10-22T09:25:22;98493.34;;;13.45;59.65
41040;BME280;48586;50.122;18.972;2022-10-22T09:28:24;98487.78;;;13.46;59.70
41040;BME280;48586;50.122;18.972;2022-10-22T09:31:29;98493.91;;;13.35;59.59
41040;BME280;48586;50.122;18.972;2022-10-22T09:34:31;98496.56;;;13.35;59.34
41040;BME280;48586;50.122;18.972;2022-10-22T09:37:34;98495.75;;;13.35;59.81
41040;BME280;48586;50.122;18.972;2022-10-22T09:40:44;98494.97;;;13.46;60.06
41040;BME280;48586;50.122;18.972;2022-10-22T09:43:46;98486.72;;;13.47;59.70
41040;BME280;48586;50.122;18.972;2022-10-22T09:46:48;98480.84;;;13.45;59.66
41040;BME280;48586;50.122;18.972;2022-10-22T09:50:03;98487.31;;;13.50;59.54
41040;BME280;48586;50.122;18.972;2022-10-22T09:53:13;98499.13;;;13.54;59.61
41040;BME280;48586;50.122;18.972;2022-10-22T09:56:24;98490.66;;;13.57;59.33
41040;BME280;48586;50.122;18.972;2022-10-22T09:59:29;98485.81;;;13.54;59.64
41040;BME280;48586;50.122;18.972;2022-10-22T10:02:31;98487.44;;;13.55;59.59
41040;BME280;48586;50.122;18.972;2022-10-22T10:05:34;98498.91;;;13.55;59.63
41040;BME280;48586;50.122;18.972;2022-10-22T10:08:37;98504.28;;;13.67;59.52
41040;BME280;48586;50.122;18.972;2022-10-22T10:11:45;98499.16;;;13.77;59.26
41040;BME280;48586;50.122;18.972;2022-10-22T10:14:54;98504.84;;;13.81;59.45
41040;BME280;48586;50.122;18.972;2022-10-22T10:18:05;98498.00;;;13.85;59.57
41040;BME280;48586;50.122;18.972;2022-10-22T10:21:19;98499.63;;;13.86;59.67
41040;BME280;48586;50.122;18.972;2022-10-22T10:24:29;98494.28;;;13.86;59.63
41040;BME280;48586;50.122;18.972;2022-10-22T10:27:37;98493.03;;;13.88;59.60
41040;BME280;48586;50.122;18.972;2022-10-22T10:30:45;98499.06;;;13.84;59.62
41040;BME280;48586;50.122;18.972;2022-10-22T10:33:54;98502.06;;;13.87;59.84
41040;BME280;48586;50.122;18.972;2022-10-22T10:37:10;98492.44;;;13.86;59.94
41040;BME280;48586;50.122;18.972;2022-10-22T10:40:23;98489.56;;;13.76;61.11
41040;BME280;48586;50.122;18.972;2022-10-22T10:43:33;98496.63;;;13.70;61.09
41040;BME280;48586;50.122;18.972;2022-10-22T10:46:46;98500.56;;;13.68;61.54
41040;BME280;48586;50.122;18.972;2022-10-22T10:49:53;98489.41;;;13.59;61.87
41040;BME280;48586;50.122;18.972;2022-10-22T10:53:05;98494.16;;;13.57;62.63
41040;BME280;48586;50.122;18.972;2022-10-22T10:56:30;98480.63;;;13.59;62.92
41040;BME280;48586;50.122;18.972;2022-10-22T10:59:53;98474.69;;;13.57;63.28
41040;BME280;48586;50.122;18.972;2022-10-22T11:03:33;98474.69;;;13.57;63.27
41040;BME280;48586;50.122;18.972;2022-10-22T11:06:36;98476.06;;;13.47;63.35
41040;BME280;48586;50.122;18.972;2022-10-22T11:09:42;98472.25;;;13.43;63.83
41040;BME280;48586;50.122;18.972;2022-10-22T11:12:47;98459.06;;;13.37;64.40
41040;BME280;48586;50.122;18.972;2022-10-22T11:15:54;98461.38;;;13.33;64.89
41040;BME280;48586;50.122;18.972;2022-10-22T11:19:02;98465.44;;;13.36;64.13
41040;BME280;48586;50.122;18.972;2022-10-22T11:22:12;98458.13;;;13.43;64.88
41040;BME280;48586;50.122;18.972;2022-10-22T11:25:17;98465.44;;;13.47;64.56
41040;BME280;48586;50.122;18.972;2022-10-22T11:28:26;98448.44;;;13.49;65.87
41040;BME280;48586;50.122;18.972;2022-10-22T11:31:31;98451.66;;;13.51;64.70
41040;BME280;48586;50.122;18.972;2022-10-22T11:34:37;98443.13;;;13.49;65.25
41040;BME280;48586;50.122;18.972;2022-10-22T11:37:43;98443.81;;;13.44;65.26
41040;BME280;48586;50.122;18.972;2022-10-22T11:40:47;98447.38;;;13.50;64.78
41040;BME280;48586;50.122;18.972;2022-10-22T11:43:55;98456.16;;;13.38;66.06
41040;BME280;48586;50.122;18.972;2022-10-22T11:47:12;98460.34;;;13.34;66.18
41040;BME280;48586;50.122;18.972;2022-10-22T11:50:19;98453.28;;;13.28;65.91
41040;BME280;48586;50.122;18.972;2022-10-22T11:53:29;98468.31;;;13.34;65.70
41040;BME280;48586;50.122;18.972;2022-10-22T11:56:36;98478.97;;;13.34;65.53
41040;BME280;48586;50.122;18.972;2022-10-22T11:59:40;98477.09;;;13.35;65.19
41040;BME280;48586;50.122;18.972;2022-10-22T12:03:01;98459.53;;;13.34;65.74
41040;BME280;48586;50.122;18.972;2022-10-22T12:06:15;98454.31;;;13.27;65.64
41040;BME280;48586;50.122;18.972;2022-10-22T12:09:22;98443.53;;;13.22;65.66
41040;BME280;48586;50.122;18.972;2022-10-22T12:12:25;98449.78;;;13.16;66.29
41040;BME280;48586;50.122;18.972;2022-10-22T12:15:29;98448.75;;;13.17;65.85
41040;BME280;48586;50.122;18.972;2022-10-22T12:18:39;98437.19;;;13.23;65.92
41040;BME280;48586;50.122;18.972;2022-10-22T12:21:44;98432.69;;;13.24;65.27
41040;BME280;48586;50.122;18.972;2022-10-22T12:24:49;98441.72;;;13.23;65.31
41040;BME280;48586;50.122;18.972;2022-10-22T12:27:52;98436.38;;;13.23;65.36
41040;BME280;48586;50.122;18.972;2022-10-22T12:30:58;98449.31;;;13.31;65.33
41040;BME280;48586;50.122;18.972;2022-10-22T12:34:02;98466.13;;;13.31;65.63
41040;BME280;48586;50.122;18.972;2022-10-22T12:37:04;98445.53;;;13.27;65.34
41040;BME280;48586;50.122;18.972;2022-10-22T12:40:16;98444.69;;;13.26;66.30
41040;BME280;48586;50.122;18.972;2022-10-22T12:43:23;98459.88;;;13.14;66.58
41040;BME280;48586;50.122;18.972;2022-10-22T12:46:26;98442.50;;;13.11;66.53
41040;BME280;48586;50.122;18.972;2022-10-22T12:49:34;98441.34;;;13.19;66.54
41040;BME280;48586;50.122;18.972;2022-10-22T12:52:37;98439.97;;;13.28;65.84
41040;BME280;48586;50.122;18.972;2022-10-22T12:55:39;98436.38;;;13.34;65.84
41040;BME280;48586;50.122;18.972;2022-10-22T12:58:43;98436.16;;;13.36;65.63
41040;BME280;48586;50.122;18.972;2022-10-22T13:01:48;98434.31;;;13.36;65.90
41040;BME280;48586;50.122;18.972;2022-10-22T13:05:15;98432.31;;;13.43;66.40
41040;BME280;48586;50.122;18.972;2022-10-22T13:08:20;98438.47;;;13.32;67.23
41040;BME280;48586;50.122;18.972;2022-10-22T13:11:22;98431.06;;;13.34;66.78
41040;BME280;48586;50.122;18.972;2022-10-22T13:14:28;98425.03;;;13.39;66.45
41040;BME280;48586;50.122;18.972;2022-10-22T13:17:38;98418.09;;;13.50;66.30
41040;BME280;48586;50.122;18.972;2022-10-22T13:20:51;98434.63;;;13.52;66.51
41040;BME280;48586;50.122;18.972;2022-10-22T13:23:56;98455.25;;;13.44;66.63
41040;BME280;48586;50.122;18.972;2022-10-22T13:26:58;98441.50;;;13.36;67.71
41040;BME280;48586;50.122;18.972;2022-10-22T13:30:02;98434.06;;;13.26;68.70
41040;BME280;48586;50.122;18.972;2022-10-22T13:33:21;98436.59;;;13.21;70.47
41040;BME280;48586;50.122;18.972;2022-10-22T13:36:27;98434.75;;;13.10;69.00
41040;BME280;48586;50.122;18.972;2022-10-22T13:39:30;98439.59;;;13.01;70.10
41040;BME280;48586;50.122;18.972;2022-10-22T13:42:33;98428.91;;;12.89;69.90
41040;BME280;48586;50.122;18.972;2022-10-22T13:45:35;98428.88;;;12.78;70.78
41040;BME280;48586;50.122;18.972;2022-10-22T13:48:37;98438.34;;;12.62;72.05
41040;BME280;48586;50.122;18.972;2022-10-22T13:51:41;98439.75;;;12.46;73.30
41040;BME280;48586;50.122;18.972;2022-10-22T13:54:43;98436.59;;;12.37;72.77
41040;BME280;48586;50.122;18.972;2022-10-22T13:57:45;98444.66;;;12.31;73.37
41040;BME280;48586;50.122;18.972;2022-10-22T14:00:49;98439.03;;;12.20;73.74
41040;BME280;48586;50.122;18.972;2022-10-22T14:03:55;98453.84;;;12.10;76.34
41040;BME280;48586;50.122;18.972;2022-10-22T14:07:00;98442.97;;;12.00;76.96
41040;BME280;48586;50.122;18.972;2022-10-22T14:10:05;98452.78;;;11.99;75.93
41040;BME280;48586;50.122;18.972;2022-10-22T14:13:08;98450.41;;;11.91;76.89
41040;BME280;48586;50.122;18.972;2022-10-22T14:16:15;98442.66;;;11.89;77.29
41040;BME280;48586;50.122;18.972;2022-10-22T14:19:18;98456.53;;;11.91;76.71
41040;BME280;48586;50.122;18.972;2022-10-22T14:22:23;98442.06;;;11.87;77.43
41040;BME280;48586;50.122;18.972;2022-10-22T14:25:27;98449.13;;;11.75;79.68
41040;BME280;48586;50.122;18.972;2022-10-22T14:28:30;98445.91;;;11.73;78.44
41040;BME280;48586;50.122;18.972;2022-10-22T14:31:33;98464.06;;;11.76;78.55
41040;BME280;48586;50.122;18.972;2022-10-22T14:34:36;98452.03;;;11.74;79.02
41040;BME280;48586;50.122;18.972;2022-10-22T14:37:39;98449.59;;;11.72;79.38
41040;BME280;48586;50.122;18.972;2022-10-22T14:40:41;98454.53;;;11.68;79.39
41040;BME280;48586;50.122;18.972;2022-10-22T14:43:44;98458.00;;;11.69;79.42
41040;BME280;48586;50.122;18.972;2022-10-22T14:46:46;98455.91;;;11.71;78.89
41040;BME280;48586;50.122;18.972;2022-10-22T14:49:48;98462.22;;;11.77;79.43
41040;BME280;48586;50.122;18.972;2022-10-22T14:52:52;98456.44;;;11.80;78.84
41040;BME280;48586;50.122;18.972;2022-10-22T14:55:56;98455.19;;;11.82;79.97
41040;BME280;48586;50.122;18.972;2022-10-22T14:58:59;98459.94;;;11.80;79.97
41040;BME280;48586;50.122;18.972;2022-10-22T15:02:00;98459.94;;;11.80;79.41
41040;BME280;48586;50.122;18.972;2022-10-22T15:05:03;98445.63;;;11.81;79.23
41040;BME280;48586;50.122;18.972;2022-10-22T15:08:06;98447.59;;;11.86;78.83
41040;BME280;48586;50.122;18.972;2022-10-22T15:11:10;98451.59;;;11.95;78.36
41040;BME280;48586;50.122;18.972;2022-10-22T15:14:12;98454.63;;;11.99;78.36
41040;BME280;48586;50.122;18.972;2022-10-22T15:17:15;98459.78;;;11.93;79.32
41040;BME280;48586;50.122;18.972;2022-10-22T15:20:17;98458.97;;;11.93;79.40
41040;BME280;48586;50.122;18.972;2022-10-22T15:23:20;98460.59;;;11.94;78.95
41040;BME280;48586;50.122;18.972;2022-10-22T15:26:22;98465.00;;;12.00;79.25
41040;BME280;48586;50.122;18.972;2022-10-22T15:29:24;98463.34;;;12.06;78.56
41040;BME280;48586;50.122;18.972;2022-10-22T15:32:27;98460.44;;;12.07;78.66
41040;BME280;48586;50.122;18.972;2022-10-22T15:35:29;98475.56;;;12.07;79.25
41040;BME280;48586;50.122;18.972;2022-10-22T15:38:32;98473.59;;;12.02;78.64
41040;BME280;48586;50.122;18.972;2022-10-22T15:41:34;98475.88;;;11.99;78.59
41040;BME280;48586;50.122;18.972;2022-10-22T15:44:36;98486.69;;;11.97;78.82
41040;BME280;48586;50.122;18.972;2022-10-22T15:47:39;98488.91;;;12.00;78.86
41040;BME280;48586;50.122;18.972;2022-10-22T15:50:41;98479.72;;;12.03;79.51
41040;BME280;48586;50.122;18.972;2022-10-22T15:53:49;98489.97;;;11.99;79.60
41040;BME280;48586;50.122;18.972;2022-10-22T15:56:51;98491.44;;;11.95;79.65
41040;BME280;48586;50.122;18.972;2022-10-22T15:59:53;98492.09;;;11.90;79.68
41040;BME280;48586;50.122;18.972;2022-10-22T16:02:55;98489.66;;;11.89;79.74
41040;BME280;48586;50.122;18.972;2022-10-22T16:05:57;98501.47;;;11.93;79.38
41040;BME280;48586;50.122;18.972;2022-10-22T16:09:02;98501.09;;;11.89;79.96